Time;durP1;ratioP1;P1;durP2;ratioP2;P2;SDS_P1;SDS_P2;PMS_P1;PMS_P2;Temp;Humidity;BMP_temperature;BMP_pressure;BME280_temperature;BME280_humidity;BME280_pressure;Samples;Min_cycle;Max_cycle;Signal;HPM_P1;HPM_P2
2022/08/27 00:00:08;;;;;;;;;;;12.20;99.90;;;;;;5062126;28;19912;-74
2022/08/27 00:02:34;;;;;;;;;;;12.20;99.90;;;;;;5074106;28;20270;-73
2022/08/27 00:05:01;;;;;;;;;;;12.20;99.90;;;;;;5074598;28;19912;-73
2022/08/27 00:07:27;;;;;;;;;;;12.20;99.90;;;;;;5074514;28;19935;-73
2022/08/27 00:09:52;;;;;;;;;;;12.30;99.90;;;;;;5074413;28;20274;-73
2022/08/27 00:12:18;;;;;;;;;;;12.30;99.90;;;;;;5074261;28;20364;-73
2022/08/27 00:14:43;;;;;;;;;;;12.20;99.90;;;;;;5073910;28;20027;-73
2022/08/27 00:17:09;;;;;;;;;;;12.20;99.90;;;;;;5074681;28;19916;-74
2022/08/27 00:19:35;;;;;;;;;;;12.20;99.90;;;;;;5074962;28;19961;-74
2022/08/27 00:22:01;;;;;;;;;;;12.10;99.90;;;;;;5074739;28;19913;-74
2022/08/27 00:24:27;;;;;;;;;;;12.00;99.90;;;;;;5073851;28;19954;-74
2022/08/27 00:26:52;;;;;;;;;;;12.10;99.90;;;;;;5075871;28;19955;-74
2022/08/27 00:29:18;;;;;;;;;;;12.10;99.90;;;;;;5076446;28;19915;-73
2022/08/27 00:31:44;;;;;;;;;;;12.00;99.90;;;;;;5076236;28;19919;-73
2022/08/27 00:34:10;;;;;;;;;;;11.90;99.90;;;;;;5075058;28;20296;-73
2022/08/27 00:36:36;;;;;;;;;;;11.90;99.90;;;;;;5076729;28;19999;-74
2022/08/27 00:39:01;;;;;;;;;;;11.80;99.90;;;;;;5076942;28;19955;-73
2022/08/27 00:41:27;;;;;;;;;;;11.80;99.90;;;;;;5075561;28;19912;-73
2022/08/27 00:43:56;;;;;;;;;;;11.80;99.90;;;;;;5074090;28;19913;-74
2022/08/27 00:46:37;;;;;;;;;;;11.80;99.90;;;;;;5073880;28;19916;-74
2022/08/27 00:49:26;;;;;;;;;;;11.80;99.90;;;;;;5074605;28;20354;-74
2022/08/27 00:51:54;;;;;;;;;;;11.80;99.90;;;;;;5070980;28;19954;-74
2022/08/27 00:54:20;;;;;;;;;;;11.80;99.90;;;;;;5073258;28;19987;-73
2022/08/27 00:56:46;;;;;;;;;;;11.80;99.90;;;;;;5073800;28;19908;-73
2022/08/27 00:59:14;;;;;;;;;;;11.80;99.90;;;;;;5073095;28;20261;-73
2022/08/27 01:02:17;;;;;;;;;;;11.70;99.90;;;;;;5073660;28;19912;-74
2022/08/27 01:04:26;;;;;;;;;;;11.60;99.90;;;;;;5072783;28;20077;-73
2022/08/27 01:06:52;;;;;;;;;;;11.40;99.90;;;;;;5073772;28;20369;-73
2022/08/27 01:09:18;;;;;;;;;;;11.40;99.90;;;;;;5072755;28;20242;-73
2022/08/27 01:11:44;;;;;;;;;;;11.30;99.90;;;;;;5073415;28;20021;-73
2022/08/27 01:14:09;;;;;;;;;;;11.20;99.90;;;;;;5072859;28;19931;-73
2022/08/27 01:16:38;;;;;;;;;;;11.20;99.90;;;;;;5072174;28;20358;-73
2022/08/27 01:19:10;;;;;;;;;;;11.20;99.90;;;;;;5073447;28;19913;-73
2022/08/27 01:21:45;;;;;;;;;;;11.30;99.90;;;;;;5073076;28;19913;-73
2022/08/27 01:24:33;;;;;;;;;;;11.30;99.90;;;;;;5072218;28;20340;-73
2022/08/27 01:26:59;;;;;;;;;;;11.40;99.90;;;;;;5072706;28;20003;-73
2022/08/27 01:29:25;;;;;;;;;;;11.40;99.90;;;;;;5072754;28;19909;-73
2022/08/27 01:31:51;;;;;;;;;;;11.40;99.90;;;;;;5072865;28;19915;-73
2022/08/27 01:34:16;;;;;;;;;;;11.40;99.90;;;;;;5072226;28;20019;-73
2022/08/27 01:36:42;;;;;;;;;;;11.40;99.90;;;;;;5073331;28;19912;-73
2022/08/27 01:39:08;;;;;;;;;;;11.30;99.90;;;;;;5072919;28;20322;-73
2022/08/27 01:41:33;;;;;;;;;;;11.30;99.90;;;;;;5071491;28;19970;-73
2022/08/27 01:43:59;;;;;;;;;;;11.30;99.90;;;;;;5073392;28;19962;-74
2022/08/27 01:46:26;;;;;;;;;;;11.30;99.90;;;;;;5072634;28;19915;-73
2022/08/27 01:48:52;;;;;;;;;;;11.20;99.90;;;;;;5072761;28;19908;-73
2022/08/27 01:51:18;;;;;;;;;;;11.10;99.90;;;;;;5072350;28;19959;-73
2022/08/27 01:53:44;;;;;;;;;;;11.10;99.90;;;;;;5073095;28;19940;-73
2022/08/27 01:56:10;;;;;;;;;;;11.10;99.90;;;;;;5072151;28;20415;-73
2022/08/27 01:58:37;;;;;;;;;;;11.10;99.90;;;;;;5072832;28;19916;-73
2022/08/27 02:01:04;;;;;;;;;;;11.00;99.90;;;;;;5072780;28;19931;-72
2022/08/27 02:03:30;;;;;;;;;;;11.10;99.90;;;;;;5071988;28;19909;-73
2022/08/27 02:05:56;;;;;;;;;;;11.10;99.90;;;;;;5072822;28;19954;-73
2022/08/27 02:08:22;;;;;;;;;;;11.10;99.90;;;;;;5072101;28;19968;-73
2022/08/27 02:10:48;;;;;;;;;;;11.10;99.90;;;;;;5072825;28;19916;-74
2022/08/27 02:13:14;;;;;;;;;;;11.10;99.90;;;;;;5071984;28;19920;-73
2022/08/27 02:15:41;;;;;;;;;;;11.20;99.90;;;;;;5072569;28;19931;-73
2022/08/27 02:18:07;;;;;;;;;;;11.10;99.90;;;;;;5072726;28;19915;-73
2022/08/27 02:20:33;;;;;;;;;;;11.00;99.90;;;;;;5071889;28;19909;-73
2022/08/27 02:22:59;;;;;;;;;;;10.90;99.90;;;;;;5072811;28;19912;-73
2022/08/27 02:25:27;;;;;;;;;;;10.90;99.90;;;;;;5072277;28;19995;-73
2022/08/27 02:27:53;;;;;;;;;;;10.80;99.90;;;;;;5072680;28;19915;-73
2022/08/27 02:30:20;;;;;;;;;;;10.80;99.90;;;;;;5072072;28;20444;-73
2022/08/27 02:32:46;;;;;;;;;;;10.80;99.90;;;;;;5072173;28;19944;-73
2022/08/27 02:35:16;;;;;;;;;;;10.70;99.90;;;;;;5072464;28;20411;-73
2022/08/27 02:37:43;;;;;;;;;;;10.60;99.90;;;;;;5075353;28;19915;-73
2022/08/27 02:40:10;;;;;;;;;;;10.60;99.90;;;;;;5076413;28;19962;-73
2022/08/27 02:42:35;;;;;;;;;;;10.50;99.90;;;;;;5075681;28;20012;-73
2022/08/27 02:45:01;;;;;;;;;;;10.50;99.90;;;;;;5076018;28;20345;-73
2022/08/27 02:47:27;;;;;;;;;;;10.50;99.90;;;;;;5108240;28;19944;-73
2022/08/27 02:49:52;;;;;;;;;;;10.60;99.90;;;;;;5076179;28;19915;-73
2022/08/27 02:52:18;;;;;;;;;;;10.50;99.90;;;;;;5075983;28;19908;-73
2022/08/27 02:54:43;;;;;;;;;;;10.50;99.90;;;;;;5076111;28;20377;-73
2022/08/27 02:57:09;;;;;;;;;;;10.50;99.90;;;;;;5075590;28;19916;-73
2022/08/27 02:59:35;;;;;;;;;;;10.60;99.90;;;;;;5108211;28;20009;-73
2022/08/27 03:02:00;;;;;;;;;;;10.60;99.90;;;;;;5075583;28;20246;-73
2022/08/27 03:04:27;;;;;;;;;;;10.60;99.90;;;;;;5074213;28;19913;-73
2022/08/27 03:06:53;;;;;;;;;;;10.60;99.90;;;;;;5075832;28;19912;-74
2022/08/27 03:09:19;;;;;;;;;;;10.60;99.90;;;;;;5075226;28;20315;-73
2022/08/27 03:11:45;;;;;;;;;;;10.50;99.90;;;;;;5075572;28;19912;-73
2022/08/27 03:14:11;;;;;;;;;;;10.50;99.90;;;;;;5075761;28;20011;-73
2022/08/27 03:16:37;;;;;;;;;;;10.50;99.90;;;;;;5075125;28;20430;-73
2022/08/27 03:19:05;;;;;;;;;;;10.50;99.90;;;;;;5075690;28;19955;-73
2022/08/27 03:21:31;;;;;;;;;;;10.50;99.90;;;;;;5074991;28;19912;-73
2022/08/27 03:23:59;;;;;;;;;;;10.50;99.90;;;;;;5074378;28;19919;-73
2022/08/27 03:26:25;;;;;;;;;;;10.50;99.90;;;;;;5074988;28;19999;-73
2022/08/27 03:28:51;;;;;;;;;;;10.60;99.90;;;;;;5074180;28;19955;-73
2022/08/27 03:31:25;;;;;;;;;;;10.60;99.90;;;;;;5073803;28;19913;-73
2022/08/27 03:33:51;;;;;;;;;;;10.60;99.90;;;;;;5075363;28;19909;-72
2022/08/27 03:36:17;;;;;;;;;;;10.60;99.90;;;;;;5074992;28;19908;-73
2022/08/27 03:38:42;;;;;;;;;;;10.60;99.90;;;;;;5075323;28;20273;-73
2022/08/27 03:41:08;;;;;;;;;;;10.60;99.90;;;;;;5074899;28;19987;-73
2022/08/27 03:43:34;;;;;;;;;;;10.60;99.90;;;;;;5074762;28;19917;-73
2022/08/27 03:46:00;;;;;;;;;;;10.60;99.90;;;;;;5075556;28;19978;-73
2022/08/27 03:48:26;;;;;;;;;;;10.60;99.90;;;;;;5073599;28;19915;-73
2022/08/27 03:50:52;;;;;;;;;;;10.60;99.90;;;;;;5074870;28;20034;-73
2022/08/27 03:53:19;;;;;;;;;;;10.60;99.90;;;;;;5074878;28;19909;-72
2022/08/27 03:55:45;;;;;;;;;;;10.60;99.90;;;;;;5074939;28;19914;-73
2022/08/27 03:58:11;;;;;;;;;;;10.60;99.90;;;;;;5074573;28;19999;-73
2022/08/27 04:00:37;;;;;;;;;;;10.50;99.90;;;;;;5074410;28;19966;-73
2022/08/27 04:03:04;;;;;;;;;;;10.60;99.90;;;;;;5074801;28;19916;-73
2022/08/27 04:05:30;;;;;;;;;;;10.60;99.90;;;;;;5074159;28;19913;-73
2022/08/27 04:07:56;;;;;;;;;;;10.60;99.90;;;;;;5074781;28;19916;-73
2022/08/27 04:10:21;;;;;;;;;;;10.60;99.90;;;;;;5074147;28;19934;-73
2022/08/27 04:12:47;;;;;;;;;;;10.60;99.90;;;;;;5074679;28;19908;-73
2022/08/27 04:15:13;;;;;;;;;;;10.60;99.90;;;;;;5074624;28;19909;-73
2022/08/27 04:17:38;;;;;;;;;;;10.60;99.90;;;;;;5072777;28;20153;-73
2022/08/27 04:20:06;;;;;;;;;;;10.60;99.90;;;;;;5073297;28;19916;-73
2022/08/27 04:22:32;;;;;;;;;;;10.60;99.90;;;;;;5073514;28;19912;-73
2022/08/27 04:24:58;;;;;;;;;;;10.60;99.90;;;;;;5074758;28;19913;-73
2022/08/27 04:27:25;;;;;;;;;;;10.60;99.90;;;;;;5072447;28;19935;-73
2022/08/27 04:29:54;;;;;;;;;;;10.70;99.90;;;;;;5073314;28;19977;-73
2022/08/27 04:32:20;;;;;;;;;;;10.70;99.90;;;;;;5074357;28;19909;-73
2022/08/27 04:34:46;;;;;;;;;;;10.70;99.90;;;;;;5073601;28;19920;-73
2022/08/27 04:37:11;;;;;;;;;;;10.70;99.90;;;;;;5074201;28;20369;-73
2022/08/27 04:39:37;;;;;;;;;;;10.70;99.90;;;;;;5073482;28;19915;-74
2022/08/27 04:42:02;;;;;;;;;;;10.70;99.90;;;;;;5073919;28;19938;-74
2022/08/27 04:44:31;;;;;;;;;;;10.70;99.90;;;;;;5073354;28;19917;-74
2022/08/27 04:46:57;;;;;;;;;;;10.80;99.90;;;;;;5072695;28;19995;-74
2022/08/27 04:49:24;;;;;;;;;;;10.80;99.90;;;;;;5073385;28;19962;-74
2022/08/27 04:51:49;;;;;;;;;;;10.80;99.90;;;;;;5074150;28;19908;-73
2022/08/27 04:54:15;;;;;;;;;;;10.90;99.90;;;;;;5073817;28;20065;-74
2022/08/27 04:56:41;;;;;;;;;;;10.90;99.90;;;;;;5073230;28;19909;-73
2022/08/27 04:59:08;;;;;;;;;;;10.90;99.90;;;;;;5073537;28;19915;-74
2022/08/27 05:01:35;;;;;;;;;;;10.90;99.90;;;;;;5073178;28;19923;-73
2022/08/27 05:04:00;;;;;;;;;;;10.90;99.90;;;;;;5073736;28;19939;-73
2022/08/27 05:06:26;;;;;;;;;;;11.00;99.90;;;;;;5073046;28;19908;-73
2022/08/27 05:08:53;;;;;;;;;;;11.00;99.90;;;;;;5073751;28;20062;-73
2022/08/27 05:11:19;;;;;;;;;;;11.00;99.90;;;;;;5073555;28;19908;-72
2022/08/27 05:13:45;;;;;;;;;;;11.10;99.90;;;;;;5072784;28;19909;-72
2022/08/27 05:16:12;;;;;;;;;;;11.10;99.90;;;;;;5073127;28;20255;-72
2022/08/27 05:18:38;;;;;;;;;;;11.10;99.90;;;;;;5072554;28;19912;-72
2022/08/27 05:21:04;;;;;;;;;;;11.20;99.90;;;;;;5072006;28;19958;-72
2022/08/27 05:23:31;;;;;;;;;;;11.20;99.90;;;;;;5072743;28;19913;-72
2022/08/27 05:25:56;;;;;;;;;;;11.20;99.90;;;;;;5073232;28;19994;-72
2022/08/27 05:28:24;;;;;;;;;;;11.20;99.90;;;;;;5073286;28;19995;-72
2022/08/27 05:30:50;;;;;;;;;;;11.20;99.90;;;;;;5072904;28;19923;-73
2022/08/27 05:33:18;;;;;;;;;;;11.30;99.90;;;;;;5073223;28;20325;-72
2022/08/27 05:35:45;;;;;;;;;;;11.30;99.90;;;;;;5072771;28;19978;-73
2022/08/27 05:38:11;;;;;;;;;;;11.30;99.90;;;;;;5073148;28;19915;-73
2022/08/27 05:40:37;;;;;;;;;;;11.30;99.90;;;;;;5072516;28;19908;-73
2022/08/27 05:43:03;;;;;;;;;;;11.30;99.90;;;;;;5072970;28;20026;-73
2022/08/27 05:45:29;;;;;;;;;;;11.30;99.90;;;;;;5072189;28;20372;-73
2022/08/27 05:47:55;;;;;;;;;;;11.30;99.90;;;;;;5073027;28;19909;-73
2022/08/27 05:50:20;;;;;;;;;;;11.30;99.90;;;;;;5073106;28;20392;-73
2022/08/27 05:52:46;;;;;;;;;;;11.30;99.90;;;;;;5072177;28;20456;-73
2022/08/27 05:55:11;;;;;;;;;;;11.40;99.90;;;;;;5073028;28;19908;-72
2022/08/27 05:57:37;;;;;;;;;;;11.40;99.90;;;;;;5072126;28;20396;-72
2022/08/27 06:02:48;;;;;;;;;;;11.50;99.90;;;;;;5072147;28;19959;-72
2022/08/27 06:05:13;;;;;;;;;;;11.60;99.90;;;;;;5071628;28;20320;-73
2022/08/27 06:07:39;;;;;;;;;;;11.60;99.90;;;;;;5072263;28;20268;-73
2022/08/27 06:10:06;;;;;;;;;;;11.60;99.90;;;;;;5072535;28;19908;-73
2022/08/27 06:12:33;;;;;;;;;;;11.50;99.90;;;;;;5074705;28;20015;-74
2022/08/27 06:14:58;;;;;;;;;;;11.50;99.90;;;;;;5076953;28;19954;-73
2022/08/27 06:17:24;;;;;;;;;;;11.60;99.90;;;;;;5076906;28;20307;-74
2022/08/27 06:19:49;;;;;;;;;;;11.60;99.90;;;;;;5076018;28;19917;-74
2022/08/27 06:22:15;;;;;;;;;;;11.60;99.90;;;;;;5076553;28;19931;-74
2022/08/27 06:24:41;;;;;;;;;;;11.70;99.90;;;;;;5076101;28;19958;-74
2022/08/27 06:27:10;;;;;;;;;;;11.80;99.90;;;;;;5076346;28;19908;-74
2022/08/27 06:29:36;;;;;;;;;;;11.90;99.90;;;;;;5076210;28;19913;-72
2022/08/27 06:32:02;;;;;;;;;;;12.00;99.90;;;;;;5076647;28;19962;-73
2022/08/27 06:34:27;;;;;;;;;;;12.00;99.90;;;;;;5076793;28;19920;-73
2022/08/27 06:36:53;;;;;;;;;;;12.10;99.90;;;;;;5076110;28;19924;-72
2022/08/27 06:39:19;;;;;;;;;;;12.20;99.90;;;;;;5076504;28;19916;-72
2022/08/27 06:41:45;;;;;;;;;;;12.30;99.90;;;;;;5075642;28;19919;-72
2022/08/27 06:44:11;;;;;;;;;;;12.50;99.90;;;;;;5076371;28;19920;-72
2022/08/27 06:46:37;;;;;;;;;;;12.60;99.90;;;;;;5075716;28;19913;-73
2022/08/27 06:49:03;;;;;;;;;;;12.90;99.90;;;;;;5076232;28;19909;-73
2022/08/27 06:51:30;;;;;;;;;;;13.00;99.90;;;;;;5076178;28;20345;-73
2022/08/27 06:53:57;;;;;;;;;;;13.10;99.90;;;;;;5075649;28;19962;-73
2022/08/27 06:56:22;;;;;;;;;;;13.10;99.90;;;;;;5076056;28;20302;-73
2022/08/27 06:58:52;;;;;;;;;;;13.10;99.90;;;;;;5075494;28;19909;-73
2022/08/27 07:01:19;;;;;;;;;;;13.00;99.90;;;;;;5075730;28;19915;-73
2022/08/27 07:03:44;;;;;;;;;;;13.10;99.90;;;;;;5075356;28;19917;-73
2022/08/27 07:06:11;;;;;;;;;;;13.20;99.90;;;;;;5075484;28;20007;-73
2022/08/27 07:08:38;;;;;;;;;;;13.20;99.90;;;;;;5075130;28;20003;-73
2022/08/27 07:11:04;;;;;;;;;;;13.30;99.90;;;;;;5075584;28;20233;-73
2022/08/27 07:13:30;;;;;;;;;;;13.30;99.90;;;;;;5075768;28;19916;-73
2022/08/27 07:15:56;;;;;;;;;;;13.30;99.90;;;;;;5073945;28;19909;-73
2022/08/27 07:18:21;;;;;;;;;;;13.40;99.90;;;;;;5074381;28;19912;-73
2022/08/27 07:20:47;;;;;;;;;;;13.50;99.90;;;;;;5075089;28;19916;-74
2022/08/27 07:23:13;;;;;;;;;;;13.50;99.90;;;;;;5074235;28;19943;-74
2022/08/27 07:25:40;;;;;;;;;;;13.70;99.90;;;;;;5075162;28;19920;-74
2022/08/27 07:28:06;;;;;;;;;;;13.90;99.90;;;;;;5075548;28;19908;-74
2022/08/27 07:30:32;;;;;;;;;;;14.00;99.90;;;;;;5075543;28;20356;-73
2022/08/27 07:32:57;;;;;;;;;;;14.10;99.90;;;;;;5074296;28;20007;-73
2022/08/27 07:35:23;;;;;;;;;;;14.20;99.90;;;;;;5074566;28;19927;-73
2022/08/27 07:37:48;;;;;;;;;;;14.30;99.90;;;;;;5074856;28;20308;-71
2022/08/27 07:40:15;;;;;;;;;;;14.40;99.90;;;;;;5075086;28;19912;-73
2022/08/27 07:45:25;;;;;;;;;;;14.70;99.90;;;;;;5075367;28;19923;-73
2022/08/27 07:47:51;;;;;;;;;;;14.90;99.90;;;;;;5074564;28;20353;-72
2022/08/27 07:50:16;;;;;;;;;;;15.00;99.90;;;;;;5073705;28;19909;-73
2022/08/27 07:52:42;;;;;;;;;;;15.10;99.90;;;;;;5074398;28;19912;-73
2022/08/27 07:55:12;;;;;;;;;;;15.30;99.90;;;;;;5074886;28;20372;-73
2022/08/27 07:57:38;;;;;;;;;;;15.50;99.90;;;;;;5074414;28;20357;-74
2022/08/27 08:00:05;;;;;;;;;;;15.60;99.90;;;;;;5074601;28;19908;-73
2022/08/27 08:02:31;;;;;;;;;;;15.70;99.90;;;;;;5074256;28;20358;-73
2022/08/27 08:04:57;;;;;;;;;;;15.90;99.90;;;;;;5074059;28;19931;-72
2022/08/27 08:07:23;;;;;;;;;;;16.10;99.90;;;;;;5074633;28;20315;-72
2022/08/27 08:09:49;;;;;;;;;;;16.20;99.90;;;;;;5072826;28;19915;-72
2022/08/27 08:12:14;;;;;;;;;;;16.30;99.90;;;;;;5074303;28;19909;-72
2022/08/27 08:14:40;;;;;;;;;;;16.40;99.90;;;;;;5074009;28;19909;-73
2022/08/27 08:17:06;;;;;;;;;;;16.50;99.90;;;;;;5074376;28;20354;-72
2022/08/27 08:19:32;;;;;;;;;;;16.60;99.90;;;;;;5074394;28;19909;-73
2022/08/27 08:21:58;;;;;;;;;;;16.70;99.90;;;;;;5073532;28;20043;-73
2022/08/27 08:24:24;;;;;;;;;;;16.80;99.90;;;;;;5074500;28;19968;-72
2022/08/27 08:26:49;;;;;;;;;;;16.90;99.90;;;;;;5073357;28;19909;-72
2022/08/27 08:29:15;;;;;;;;;;;16.90;99.90;;;;;;5073860;28;20002;-71
2022/08/27 08:31:41;;;;;;;;;;;17.10;99.90;;;;;;5106053;28;19909;-72
2022/08/27 08:34:06;;;;;;;;;;;17.10;99.90;;;;;;5074110;28;19916;-72
2022/08/27 08:36:32;;;;;;;;;;;17.20;99.90;;;;;;5073611;28;19919;-73
2022/08/27 08:38:58;;;;;;;;;;;17.10;99.90;;;;;;5072215;28;20509;-73
2022/08/27 08:41:26;;;;;;;;;;;17.20;99.90;;;;;;5073920;28;20398;-73
2022/08/27 08:43:52;;;;;;;;;;;17.30;99.90;;;;;;5073378;28;19978;-73
2022/08/27 08:46:21;;;;;;;;;;;17.30;99.90;;;;;;5074028;28;20349;-73
2022/08/27 08:48:48;;;;;;;;;;;17.40;99.90;;;;;;5073292;28;19951;-72
2022/08/27 08:51:13;;;;;;;;;;;17.40;99.90;;;;;;5073373;28;19909;-72
2022/08/27 08:53:58;;;;;;;;;;;17.40;99.90;;;;;;5071852;28;20038;-73
2022/08/27 08:56:41;;;;;;;;;;;17.50;99.90;;;;;;5073457;28;20278;-72
2022/08/27 08:59:14;;;;;;;;;;;17.60;99.90;;;;;;5073685;28;19936;-72
2022/08/27 09:01:40;;;;;;;;;;;17.60;99.90;;;;;;5073080;28;19978;-73
2022/08/27 09:04:08;;;;;;;;;;;17.70;99.90;;;;;;5073642;28;20357;-73
2022/08/27 09:06:39;;;;;;;;;;;17.70;99.90;;;;;;5073457;28;20081;-73
2022/08/27 09:09:34;;;;;;;;;;;17.70;99.90;;;;;;5073374;28;19909;-73
2022/08/27 09:12:04;;;;;;;;;;;17.70;99.90;;;;;;5062401;28;19911;-73
2022/08/27 09:14:48;;;;;;;;;;;17.70;99.90;;;;;;5073315;28;19919;-73
2022/08/27 09:17:13;;;;;;;;;;;17.80;99.90;;;;;;5073623;28;20417;-73
2022/08/27 09:19:39;;;;;;;;;;;17.90;99.90;;;;;;5073230;28;19963;-73
2022/08/27 09:22:09;;;;;;;;;;;18.00;99.90;;;;;;5073202;28;20342;-72
2022/08/27 09:24:53;;;;;;;;;;;18.10;99.90;;;;;;5072988;28;19919;-73
2022/08/27 09:27:20;;;;;;;;;;;18.10;99.90;;;;;;5072901;28;19915;-73
2022/08/27 09:29:50;;;;;;;;;;;18.10;99.90;;;;;;5072651;28;19912;-73
2022/08/27 09:32:20;;;;;;;;;;;18.20;99.90;;;;;;5072788;28;20315;-74
2022/08/27 09:34:45;;;;;;;;;;;18.30;99.90;;;;;;5072427;28;19924;-72
2022/08/27 09:37:14;;;;;;;;;;;18.30;99.90;;;;;;5072835;28;19912;-74
2022/08/27 09:39:47;;;;;;;;;;;18.40;99.90;;;;;;5072735;28;19915;-73
2022/08/27 09:42:28;;;;;;;;;;;18.40;99.90;;;;;;5072759;28;19913;-74
2022/08/27 09:44:54;;;;;;;;;;;18.50;99.90;;;;;;5072120;28;19930;-73
2022/08/27 09:47:20;;;;;;;;;;;18.50;99.90;;;;;;5072321;28;19908;-73
2022/08/27 09:49:46;;;;;;;;;;;18.60;99.90;;;;;;5072370;28;19932;-73
2022/08/27 09:52:28;;;;;;;;;;;18.60;99.90;;;;;;5072888;28;20324;-73
2022/08/27 09:54:55;;;;;;;;;;;18.60;99.90;;;;;;5072486;28;19913;-74
2022/08/27 09:57:53;;;;;;;;;;;18.50;99.90;;;;;;5072677;28;20001;-73
2022/08/27 10:00:26;;;;;;;;;;;18.60;99.90;;;;;;5060292;28;19909;-73
2022/08/27 10:02:52;;;;;;;;;;;18.80;99.90;;;;;;5072224;28;19939;-74
2022/08/27 10:05:29;;;;;;;;;;;18.90;99.90;;;;;;5072879;28;20341;-74
2022/08/27 10:07:58;;;;;;;;;;;18.80;99.90;;;;;;5072163;28;20365;-74
2022/08/27 10:10:33;;;;;;;;;;;18.90;99.90;;;;;;5072541;28;19912;-74
2022/08/27 10:13:05;;;;;;;;;;;19.00;99.90;;;;;;5072317;28;20023;-74
2022/08/27 10:15:39;;;;;;;;;;;19.00;99.90;;;;;;5072791;28;19955;-74
2022/08/27 10:18:10;;;;;;;;;;;19.10;99.90;;;;;;5072181;28;20413;-73
2022/08/27 10:20:39;;;;;;;;;;;19.10;99.90;;;;;;5072790;28;19909;-73
2022/08/27 10:23:18;;;;;;;;;;;19.10;99.90;;;;;;5071822;28;19920;-73
2022/08/27 10:25:50;;;;;;;;;;;19.10;99.90;;;;;;5072462;28;19913;-73
2022/08/27 10:28:15;;;;;;;;;;;19.20;99.90;;;;;;5072401;28;20003;-74
2022/08/27 10:30:50;;;;;;;;;;;19.30;99.90;;;;;;5072129;28;19943;-73
2022/08/27 10:33:29;;;;;;;;;;;19.40;99.90;;;;;;5071311;28;19912;-73
2022/08/27 10:36:08;;;;;;;;;;;19.20;99.90;;;;;;5071490;28;19920;-73
2022/08/27 10:38:52;;;;;;;;;;;19.20;99.90;;;;;;5072253;28;19955;-73
2022/08/27 10:41:23;;;;;;;;;;;19.10;99.90;;;;;;5072247;28;19909;-73
2022/08/27 10:44:04;;;;;;;;;;;19.10;99.90;;;;;;5071769;28;20372;-73
2022/08/27 10:46:33;;;;;;;;;;;19.10;99.90;;;;;;5072287;28;19909;-73
2022/08/27 10:49:16;;;;;;;;;;;19.10;99.90;;;;;;5071870;28;20296;-73
2022/08/27 10:51:49;;;;;;;;;;;19.10;99.90;;;;;;5072265;28;19922;-73
2022/08/27 10:54:26;;;;;;;;;;;19.20;99.90;;;;;;5072148;28;19923;-74
2022/08/27 10:57:12;;;;;;;;;;;19.20;99.90;;;;;;5070407;28;19909;-73
2022/08/27 10:59:38;;;;;;;;;;;19.30;99.90;;;;;;5071671;28;19909;-73
2022/08/27 11:02:19;;;;;;;;;;;19.30;99.90;;;;;;5075419;28;19916;-74
2022/08/27 11:04:47;;;;;;;;;;;19.40;99.90;;;;;;5075678;28;19966;-74
2022/08/27 11:07:28;;;;;;;;;;;19.50;99.90;;;;;;5075268;28;19954;-72
2022/08/27 11:09:58;;;;;;;;;;;19.50;99.90;;;;;;5075022;28;19912;-73
2022/08/27 11:12:27;;;;;;;;;;;19.50;99.90;;;;;;5075509;28;19962;-73
2022/08/27 11:15:01;;;;;;;;;;;19.50;99.90;;;;;;5074781;28;19908;-73
2022/08/27 11:17:30;;;;;;;;;;;19.40;99.90;;;;;;5075625;28;19918;-73
2022/08/27 11:20:09;;;;;;;;;;;19.30;99.90;;;;;;5074969;28;19915;-73
2022/08/27 11:22:40;;;;;;;;;;;19.40;99.90;;;;;;5075531;28;20007;-73
2022/08/27 11:25:21;;;;;;;;;;;19.30;99.90;;;;;;5074988;28;19975;-74
2022/08/27 11:27:48;;;;;;;;;;;19.30;99.90;;;;;;5075095;28;19930;-72
2022/08/27 11:30:17;;;;;;;;;;;19.20;99.90;;;;;;5075122;28;19912;-74
2022/08/27 11:33:09;;;;;;;;;;;19.10;99.90;;;;;;5074119;28;20414;-74
2022/08/27 11:35:54;;;;;;;;;;;19.10;99.90;;;;;;5074202;28;19920;-74
2022/08/27 11:38:31;;;;;;;;;;;19.10;99.90;;;;;;5074837;28;20260;-73
2022/08/27 11:40:56;;;;;;;;;;;19.10;99.90;;;;;;5074114;28;19908;-73
2022/08/27 11:43:24;;;;;;;;;;;19.10;99.90;;;;;;5074927;28;19928;-73
2022/08/27 11:45:55;;;;;;;;;;;19.20;99.90;;;;;;5074322;28;19947;-73
2022/08/27 11:48:32;;;;;;;;;;;19.20;99.90;;;;;;5074113;28;19999;-73
2022/08/27 11:51:01;;;;;;;;;;;19.00;99.90;;;;;;5073958;28;19909;-74
2022/08/27 11:53:38;;;;;;;;;;;19.00;99.90;;;;;;5074820;28;19909;-73
2022/08/27 11:56:20;;;;;;;;;;;19.00;99.90;;;;;;5074055;28;19944;-73
2022/08/27 11:58:45;;;;;;;;;;;19.10;99.90;;;;;;5073546;28;19912;-73
2022/08/27 12:01:24;;;;;;;;;;;19.30;99.90;;;;;;5074122;28;19904;-74
2022/08/27 12:03:59;;;;;;;;;;;19.40;99.90;;;;;;5074307;28;19962;-73
2022/08/27 12:06:25;;;;;;;;;;;19.40;99.90;;;;;;5073571;28;20357;-74
2022/08/27 12:08:51;;;;;;;;;;;19.50;99.90;;;;;;5073594;28;19961;-73
2022/08/27 12:11:23;;;;;;;;;;;19.50;99.90;;;;;;5074088;28;19909;-73
2022/08/27 12:13:58;;;;;;;;;;;19.50;99.90;;;;;;5074134;28;20429;-73
2022/08/27 12:17:02;;;;;;;;;;;19.50;99.90;;;;;;5073147;28;20053;-73
2022/08/27 12:19:27;;;;;;;;;;;19.60;99.90;;;;;;5035261;28;19995;-73
2022/08/27 12:21:59;;;;;;;;;;;19.40;99.90;;;;;;5051506;28;20011;-73
2022/08/27 12:24:33;;;;;;;;;;;19.50;99.90;;;;;;5052000;28;20042;-73
2022/08/27 12:27:01;;;;;;;;;;;19.60;99.90;;;;;;5034588;28;20454;-73
2022/08/27 12:29:45;;;;;;;;;;;19.50;99.90;;;;;;5051821;28;19908;-73
2022/08/27 12:32:13;;;;;;;;;;;19.60;99.90;;;;;;5051161;28;20000;-73
2022/08/27 12:34:46;;;;;;;;;;;19.70;99.90;;;;;;5051458;28;20015;-73
2022/08/27 12:37:12;;;;;;;;;;;19.70;99.90;;;;;;5051136;28;20539;-74
2022/08/27 12:39:39;;;;;;;;;;;19.70;99.90;;;;;;5051491;28;19912;-73
2022/08/27 12:42:11;;;;;;;;;;;19.80;99.90;;;;;;5050604;28;19940;-73
2022/08/27 12:44:36;;;;;;;;;;;19.90;99.90;;;;;;5051628;28;20007;-73
2022/08/27 12:47:04;;;;;;;;;;;19.80;99.90;;;;;;5050749;28;20357;-73
2022/08/27 12:49:35;;;;;;;;;;;19.80;99.90;;;;;;5056043;28;19931;-73
2022/08/27 12:52:04;;;;;;;;;;;19.70;99.90;;;;;;5073077;28;20353;-73
2022/08/27 12:54:32;;;;;;;;;;;19.70;99.90;;;;;;5073751;28;19908;-73
2022/08/27 12:57:03;;;;;;;;;;;19.70;99.90;;;;;;5072758;28;20353;-74
2022/08/27 12:59:41;;;;;;;;;;;19.70;99.90;;;;;;5073696;28;19909;-74
2022/08/27 13:02:12;;;;;;;;;;;19.60;99.90;;;;;;5072941;28;19920;-74
2022/08/27 13:04:39;;;;;;;;;;;19.70;99.90;;;;;;5073467;28;19912;-74
2022/08/27 13:07:05;;;;;;;;;;;19.70;99.90;;;;;;5072461;28;20278;-73
2022/08/27 13:09:35;;;;;;;;;;;19.50;99.90;;;;;;5072896;28;19915;-73
2022/08/27 13:12:02;;;;;;;;;;;19.20;99.90;;;;;;5071748;28;19912;-73
2022/08/27 13:14:35;;;;;;;;;;;19.10;99.90;;;;;;5105158;28;19908;-73
2022/08/27 13:17:06;;;;;;;;;;;19.00;99.90;;;;;;5071775;28;19920;-73
2022/08/27 13:19:33;;;;;;;;;;;19.00;99.90;;;;;;5072914;28;19909;-73
2022/08/27 13:22:00;;;;;;;;;;;19.00;99.90;;;;;;5071249;28;19920;-73
2022/08/27 13:24:44;;;;;;;;;;;19.10;99.90;;;;;;5073113;28;19913;-73
2022/08/27 13:27:10;;;;;;;;;;;19.10;99.90;;;;;;5072325;28;19912;-73
2022/08/27 13:29:36;;;;;;;;;;;19.10;99.90;;;;;;5073362;28;19908;-73
2022/08/27 13:32:02;;;;;;;;;;;19.30;99.90;;;;;;5072266;28;20300;-73
2022/08/27 13:34:31;;;;;;;;;;;19.40;99.90;;;;;;5073197;28;19920;-73
2022/08/27 13:37:04;;;;;;;;;;;19.30;99.90;;;;;;5072546;28;20288;-73
2022/08/27 13:39:34;;;;;;;;;;;19.40;99.90;;;;;;5081139;28;19919;-73
2022/08/27 13:42:01;;;;;;;;;;;19.40;99.90;;;;;;5089856;28;19939;-74
2022/08/27 13:44:35;;;;;;;;;;;19.40;99.90;;;;;;5092964;28;19916;-72
2022/08/27 13:47:09;;;;;;;;;;;19.50;99.90;;;;;;5092620;28;19974;-73
2022/08/27 13:49:35;;;;;;;;;;;19.60;99.90;;;;;;5093062;28;19965;-74
2022/08/27 13:52:13;;;;;;;;;;;19.60;99.90;;;;;;5092555;28;20353;-74
2022/08/27 13:54:41;;;;;;;;;;;19.50;99.90;;;;;;5092344;28;19909;-73
2022/08/27 13:57:09;;;;;;;;;;;19.40;99.90;;;;;;5092727;28;19934;-73
2022/08/27 13:59:37;;;;;;;;;;;19.30;99.90;;;;;;5092430;28;20357;-73
2022/08/27 14:02:02;;;;;;;;;;;19.30;99.90;;;;;;5091751;28;20357;-73
2022/08/27 14:04:37;;;;;;;;;;;19.30;99.90;;;;;;5092669;28;19919;-74
2022/08/27 14:07:12;;;;;;;;;;;19.40;99.90;;;;;;5091695;28;20029;-73
2022/08/27 14:10:01;;;;;;;;;;;19.30;99.90;;;;;;5092292;28;19947;-74
2022/08/27 14:12:32;;;;;;;;;;;19.50;99.90;;;;;;5086399;28;20361;-73
2022/08/27 14:15:10;;;;;;;;;;;19.70;99.90;;;;;;5092054;28;19909;-74
2022/08/27 14:17:37;;;;;;;;;;;19.70;99.90;;;;;;5092199;28;19913;-74
2022/08/27 14:20:03;;;;;;;;;;;19.70;99.90;;;;;;5091550;28;19916;-73
2022/08/27 14:22:29;;;;;;;;;;;19.70;99.90;;;;;;5092111;28;19919;-74
2022/08/27 14:24:55;;;;;;;;;;;19.60;99.90;;;;;;5090919;28;19912;-73
2022/08/27 14:27:20;;;;;;;;;;;19.60;99.90;;;;;;5091532;28;19912;-73
2022/08/27 14:29:48;;;;;;;;;;;19.60;99.90;;;;;;5092417;28;19908;-74